createdAt,value
2018-09-10T00:00:16.171Z,8.65
2018-09-10T00:02:44.374Z,9.30
2018-09-10T00:05:12.518Z,10.10
2018-09-10T00:07:40.725Z,10.63
2018-09-10T00:10:08.813Z,10.20
2018-09-10T00:12:36.827Z,10.08
2018-09-10T00:15:05.046Z,9.80
2018-09-10T00:17:33.204Z,9.55
2018-09-10T00:20:01.288Z,9.10
2018-09-10T00:22:29.439Z,10.40
2018-09-10T00:24:57.652Z,10.48
2018-09-10T00:27:25.686Z,11.20
2018-09-10T00:29:53.776Z,9.58
2018-09-10T00:32:21.849Z,10.90
2018-09-10T00:34:50.051Z,9.90
2018-09-10T00:37:18.218Z,10.03
2018-09-10T00:39:46.265Z,10.60
2018-09-10T00:42:14.351Z,10.18
2018-09-10T00:44:42.498Z,11.20
2018-09-10T00:47:10.700Z,10.48
2018-09-10T00:49:38.771Z,10.75
2018-09-10T00:52:07.664Z,11.48
2018-09-10T00:54:35.993Z,10.28
2018-09-10T00:57:04.170Z,11.38
2018-09-10T00:59:32.303Z,11.70
2018-09-10T01:02:00.477Z,10.28
2018-09-10T01:04:28.768Z,8.00
2018-09-10T01:06:56.903Z,8.37
2018-09-10T01:09:25.007Z,8.53
2018-09-10T01:11:53.118Z,7.80
2018-09-10T01:14:21.119Z,10.45
2018-09-10T01:16:49.327Z,12.90
2018-09-10T01:19:17.383Z,11.28
2018-09-10T01:21:45.530Z,10.08
2018-09-10T01:24:13.636Z,10.70
2018-09-10T01:26:41.720Z,10.35
2018-09-10T01:29:09.868Z,10.85
2018-09-10T01:31:38.076Z,12.10
2018-09-10T01:34:11.580Z,10.20
2018-09-10T01:36:39.644Z,10.78
2018-09-10T01:39:08.483Z,10.70
2018-09-10T01:41:36.579Z,10.88
2018-09-10T01:44:04.774Z,11.18
2018-09-10T01:46:32.976Z,11.30
2018-09-10T01:49:01.028Z,12.95
2018-09-10T01:51:29.274Z,11.20
2018-09-10T01:53:57.428Z,11.90
2018-09-10T01:56:25.433Z,14.30
2018-09-10T01:58:53.536Z,14.98
2018-09-10T02:01:21.605Z,12.13
2018-09-10T02:03:49.764Z,12.63
2018-09-10T02:06:18.328Z,13.50
2018-09-10T02:08:46.316Z,12.60
2018-09-10T02:11:14.414Z,12.98
2018-09-10T02:13:42.481Z,14.33
2018-09-10T02:16:14.543Z,13.43
2018-09-10T02:18:46.256Z,12.53
2018-09-10T02:21:22.226Z,12.90
2018-09-10T02:23:52.633Z,13.97
2018-09-10T02:26:30.020Z,15.28
2018-09-10T02:29:05.282Z,14.78
2018-09-10T02:31:48.101Z,14.50
2018-09-10T02:34:19.121Z,14.75
2018-09-10T02:36:50.535Z,14.23
2018-09-10T02:39:21.284Z,13.38
2018-09-10T02:41:49.297Z,11.55
2018-09-10T02:44:17.301Z,12.18
2018-09-10T02:46:45.395Z,11.20
2018-09-10T02:49:13.755Z,12.23
2018-09-10T02:51:41.983Z,13.30
2018-09-10T02:54:10.040Z,12.37
2018-09-10T02:56:38.276Z,15.18
2018-09-10T02:59:06.607Z,15.88
2018-09-10T03:01:34.627Z,13.90
2018-09-10T03:04:02.723Z,15.38
2018-09-10T03:06:31.003Z,15.32
2018-09-10T03:08:59.173Z,16.12
2018-09-10T03:11:27.251Z,14.78
2018-09-10T03:13:55.472Z,16.50
2018-09-10T03:16:23.619Z,14.80
2018-09-10T03:18:51.669Z,13.95
2018-09-10T03:21:19.756Z,13.07
2018-09-10T03:23:47.946Z,13.70
2018-09-10T03:26:16.132Z,11.68
2018-09-10T03:28:44.159Z,11.93
2018-09-10T03:31:12.357Z,13.10
2018-09-10T03:33:40.540Z,12.13
2018-09-10T03:36:08.776Z,13.32
2018-09-10T03:38:37.191Z,13.15
2018-09-10T03:41:05.238Z,12.60
2018-09-10T03:43:33.340Z,14.10
2018-09-10T03:46:01.384Z,13.80
2018-09-10T03:48:29.886Z,13.58
2018-09-10T03:51:03.631Z,13.70
2018-09-10T03:53:36.994Z,14.80
2018-09-10T03:56:10.819Z,15.45
2018-09-10T03:58:46.595Z,16.42
2018-09-10T04:01:20.721Z,15.25
2018-09-10T04:03:53.907Z,13.65
2018-09-10T04:06:27.118Z,14.80
2018-09-10T04:08:55.237Z,12.45
2018-09-10T04:11:23.399Z,14.35
2018-09-10T04:13:51.973Z,15.70
2018-09-10T04:16:20.151Z,14.80
2018-09-10T04:18:48.824Z,14.47
2018-09-10T04:21:17.181Z,13.60
2018-09-10T04:23:45.284Z,13.45
2018-09-10T04:26:13.372Z,13.17
2018-09-10T04:28:41.419Z,11.55
2018-09-10T04:31:09.657Z,10.20
2018-09-10T04:33:37.672Z,10.77
2018-09-10T04:36:05.885Z,11.48
2018-09-10T04:38:34.165Z,12.00
2018-09-10T04:41:02.303Z,11.43
2018-09-10T04:43:30.622Z,13.20
2018-09-10T04:45:58.855Z,11.50
2018-09-10T04:48:27.075Z,12.55
2018-09-10T04:50:55.217Z,14.90
2018-09-10T04:53:23.323Z,13.83
2018-09-10T04:55:51.356Z,14.47
2018-09-10T04:58:19.455Z,14.53
2018-09-10T05:00:47.622Z,13.90
2018-09-10T05:03:15.722Z,14.03
2018-09-10T05:05:43.945Z,10.08
2018-09-10T05:08:12.020Z,9.43
2018-09-10T05:10:40.129Z,10.53
2018-09-10T05:13:08.274Z,11.50
2018-09-10T05:15:36.392Z,10.60
2018-09-10T05:18:04.428Z,11.05
2018-09-10T05:20:32.558Z,11.83
2018-09-10T05:23:00.592Z,11.97
2018-09-10T05:25:28.640Z,12.20
2018-09-10T05:27:56.793Z,13.25
2018-09-10T05:30:24.813Z,13.70
2018-09-10T05:32:52.880Z,15.53
2018-09-10T05:35:21.072Z,13.50
2018-09-10T05:37:49.260Z,14.85
2018-09-10T05:40:17.376Z,14.40
2018-09-10T05:42:45.701Z,14.20
2018-09-10T05:45:14.231Z,14.05
2018-09-10T05:47:42.552Z,13.10
2018-09-10T05:50:11.547Z,13.43
2018-09-10T05:52:39.824Z,13.22
2018-09-10T05:55:07.880Z,14.23
2018-09-10T05:57:36.135Z,13.68
2018-09-10T06:00:04.749Z,13.05
2018-09-10T06:02:32.995Z,13.58
2018-09-10T06:05:01.111Z,13.22
2018-09-10T06:07:29.155Z,13.70
2018-09-10T06:09:57.221Z,13.55
2018-09-10T06:12:25.315Z,12.50
2018-09-10T06:14:53.628Z,12.60
2018-09-10T06:17:21.680Z,13.38
2018-09-10T06:19:49.751Z,11.90
2018-09-10T06:22:18.026Z,13.03
2018-09-10T06:24:46.331Z,11.30
2018-09-10T06:27:14.498Z,12.30
2018-09-10T06:29:42.549Z,12.13
2018-09-10T06:32:10.651Z,12.25
2018-09-10T06:34:38.684Z,10.73
2018-09-10T06:37:07.035Z,11.57
2018-09-10T06:39:35.017Z,11.38
2018-09-10T06:42:03.236Z,11.35
2018-09-10T06:44:31.276Z,11.87
2018-09-10T06:46:59.395Z,11.40
2018-09-10T06:49:27.427Z,10.38
2018-09-10T06:51:55.516Z,11.00
2018-09-10T06:54:23.816Z,10.75
2018-09-10T06:56:51.851Z,11.35
2018-09-10T06:59:19.952Z,10.50
2018-09-10T07:01:48.009Z,10.30
2018-09-10T07:04:16.191Z,9.48
2018-09-10T07:06:44.400Z,9.08
2018-09-10T07:09:12.433Z,9.55
2018-09-10T07:11:40.627Z,8.55
2018-09-10T07:14:08.799Z,9.35
2018-09-10T07:16:36.878Z,8.80
2018-09-10T07:19:05.194Z,9.20
2018-09-10T07:21:33.239Z,9.60
2018-09-10T07:24:01.294Z,9.10
2018-09-10T07:26:29.544Z,8.30
2018-09-10T07:28:57.681Z,9.45
2018-09-10T07:31:25.797Z,8.90
2018-09-10T07:33:53.924Z,8.78
2018-09-10T07:36:22.068Z,9.40
2018-09-10T07:38:50.261Z,9.43
2018-09-10T07:41:18.327Z,9.75
2018-09-10T07:43:46.668Z,9.45
2018-09-10T07:46:14.768Z,9.80
2018-09-10T07:48:42.861Z,9.75
2018-09-10T07:51:10.893Z,9.10
2018-09-10T07:53:39.208Z,9.40
2018-09-10T07:56:07.611Z,9.90
2018-09-10T07:58:35.765Z,9.10
2018-09-10T08:01:03.898Z,8.50
2018-09-10T08:03:32.092Z,8.48
2018-09-10T08:06:00.185Z,8.78
2018-09-10T08:08:28.236Z,9.58
2018-09-10T08:10:56.345Z,9.20
2018-09-10T08:13:24.376Z,8.08
2018-09-10T08:15:52.475Z,8.70
2018-09-10T08:18:20.542Z,8.28
2018-09-10T08:20:48.825Z,8.95
2018-09-10T08:23:16.919Z,8.25
2018-09-10T08:25:44.964Z,7.70
2018-09-10T08:28:13.143Z,7.60
2018-09-10T08:30:41.204Z,7.45
2018-09-10T08:33:09.491Z,6.75
2018-09-10T08:35:37.559Z,6.97
2018-09-10T08:38:05.656Z,7.50
2018-09-10T08:40:33.705Z,7.10
2018-09-10T08:43:01.784Z,7.55
2018-09-10T08:45:29.838Z,7.70
2018-09-10T08:47:57.945Z,6.30
2018-09-10T08:50:26.100Z,6.95
2018-09-10T08:52:54.308Z,7.00
2018-09-10T08:55:22.481Z,6.83
2018-09-10T08:57:50.435Z,6.40
2018-09-10T09:00:18.727Z,6.78
2018-09-10T09:02:46.892Z,6.53
2018-09-10T09:05:15.158Z,7.25
2018-09-10T09:07:43.262Z,6.70
2018-09-10T09:10:11.416Z,6.60
2018-09-10T09:12:39.605Z,6.70
2018-09-10T09:15:07.772Z,7.17
2018-09-10T09:17:35.933Z,6.37
2018-09-10T09:20:04.425Z,6.92
2018-09-10T09:22:32.676Z,6.70
2018-09-10T09:25:00.769Z,6.50
2018-09-10T09:27:28.803Z,6.70
2018-09-10T09:29:56.867Z,6.70
2018-09-10T09:32:24.956Z,6.80
2018-09-10T09:34:55.433Z,6.53
2018-09-10T09:37:29.560Z,6.60
2018-09-10T09:40:03.211Z,6.40
2018-09-10T09:42:36.896Z,6.55
2018-09-10T09:45:10.828Z,6.30
2018-09-10T09:47:39.029Z,6.45
2018-09-10T09:50:07.357Z,6.55
2018-09-10T09:52:35.457Z,6.53
2018-09-10T09:55:03.660Z,6.80
2018-09-10T09:57:31.740Z,6.95
2018-09-10T09:59:59.799Z,6.30
2018-09-10T10:02:33.630Z,6.62
2018-09-10T10:05:01.723Z,6.53
2018-09-10T10:07:29.837Z,6.45
2018-09-10T10:09:57.935Z,6.65
2018-09-10T10:12:26.055Z,6.67
2018-09-10T10:14:54.078Z,6.50
2018-09-10T10:17:22.265Z,6.87
2018-09-10T10:19:51.480Z,6.72
2018-09-10T10:22:19.631Z,5.78
2018-09-10T10:24:47.700Z,6.20
2018-09-10T10:27:15.770Z,6.10
2018-09-10T10:29:43.811Z,6.40
2018-09-10T10:32:11.819Z,6.53
2018-09-10T10:34:39.901Z,7.00
2018-09-10T10:37:08.043Z,6.75
2018-09-10T10:39:36.261Z,6.40
2018-09-10T10:42:04.416Z,6.57
2018-09-10T10:44:32.491Z,6.27
2018-09-10T10:47:00.541Z,6.00
2018-09-10T10:49:28.639Z,5.27
2018-09-10T10:51:56.786Z,6.90
2018-09-10T10:54:24.879Z,5.10
2018-09-10T10:56:53.037Z,6.00
2018-09-10T10:59:21.141Z,5.63
2018-09-10T11:01:49.212Z,5.73
2018-09-10T11:04:17.426Z,5.80
2018-09-10T11:06:45.682Z,7.00
2018-09-10T11:09:13.947Z,6.40
2018-09-10T11:11:42.200Z,5.57
2018-09-10T11:14:10.383Z,5.57
2018-09-10T11:16:38.522Z,5.90
2018-09-10T11:19:06.519Z,5.50
2018-09-10T11:21:34.591Z,5.10
2018-09-10T11:24:02.849Z,5.30
2018-09-10T11:26:30.823Z,6.07
2018-09-10T11:28:58.853Z,5.83
2018-09-10T12:03:23.593Z,4.90
2018-09-10T13:58:52.708Z,4.50
2018-09-10T14:01:20.849Z,4.63
2018-09-10T14:03:48.919Z,4.47
2018-09-10T14:06:17.117Z,4.40
2018-09-10T14:08:45.179Z,4.23
2018-09-10T14:11:13.340Z,4.03
2018-09-10T14:13:41.664Z,3.87
2018-09-10T14:16:10.236Z,4.50
2018-09-10T14:18:38.423Z,4.60
2018-09-10T14:21:06.450Z,4.40
2018-09-10T14:23:34.655Z,4.80
2018-09-10T14:26:03.088Z,4.10
2018-09-10T14:28:31.329Z,5.20
2018-09-10T14:30:59.368Z,4.40
2018-09-10T14:33:27.562Z,5.10
2018-09-10T14:35:55.621Z,4.80
2018-09-10T14:38:23.711Z,4.67
2018-09-10T14:40:51.781Z,4.30
2018-09-10T14:43:19.829Z,4.30
2018-09-10T14:45:47.928Z,4.20
2018-09-10T14:48:15.976Z,4.50
2018-09-10T14:50:44.188Z,4.87
2018-09-10T14:53:12.239Z,5.10
2018-09-10T14:55:40.299Z,4.27
2018-09-10T14:58:08.400Z,4.20
2018-09-10T15:00:36.432Z,4.60
2018-09-10T15:03:04.543Z,4.17
2018-09-10T15:05:32.615Z,4.93
2018-09-10T15:08:01.261Z,4.50
2018-09-10T15:10:29.352Z,4.23
2018-09-10T15:12:57.447Z,3.93
2018-09-10T15:15:25.497Z,3.93
2018-09-10T15:17:53.632Z,4.67
2018-09-10T15:20:21.692Z,4.20
2018-09-10T15:22:49.747Z,4.53
2018-09-10T15:25:17.812Z,4.27
2018-09-10T15:27:45.867Z,3.70
2018-09-10T15:30:13.964Z,4.00
2018-09-10T15:32:42.009Z,4.10
2018-09-10T15:35:10.009Z,4.13
2018-09-10T15:37:38.040Z,4.17
2018-09-10T15:40:06.265Z,4.00
2018-09-10T15:42:34.434Z,3.83
2018-09-10T15:45:02.584Z,3.50
2018-09-10T15:47:30.680Z,3.77
2018-09-10T15:49:58.858Z,3.53
2018-09-10T15:52:27.046Z,3.70
2018-09-10T15:54:55.075Z,3.50
2018-09-10T15:57:23.122Z,3.10
2018-09-10T15:59:55.227Z,3.33
2018-09-10T16:02:23.519Z,3.67
2018-09-10T16:04:55.003Z,3.10
2018-09-10T16:07:26.732Z,3.20
2018-09-10T16:09:58.756Z,3.43
2018-09-10T16:12:30.906Z,3.10
2018-09-10T16:15:03.422Z,3.07
2018-09-10T16:17:44.001Z,4.10
2018-09-10T16:20:12.059Z,3.30
2018-09-10T16:22:40.431Z,3.23
2018-09-10T16:25:19.093Z,3.60
2018-09-10T16:27:47.236Z,3.27
2018-09-10T16:35:10.160Z,3.25
2018-09-10T16:37:38.309Z,3.30
2018-09-10T16:40:06.708Z,3.87
